Aérodrome :
LOGIN :

S'inscrire | Disclaimer

   EN    FR    IT 

 










Légende :    VFR   VFR Marginal   IFR   IFR Intensif   IFR Très Intensif
Visi : 
Plafond : 
>= 8 km
>= 3000ft
5 à 8 km
1000 à 3000 ft
1500m à 5 km
500 à 1000 ft
800 à 1500m
200 à 500 ft
< 800m
< 200 ft
Symboles :   Orages  Brouillard  Fortes neiges  Fortes précipitations  Vent > 20 kt
SIGMETs :   Divers  Orages  Givrage  Turbulence  Onde Orograph.  Cendres Volcan.






- Altitude de l'aérodrome : 135 ft
- Code IATA : TLV


LLBG - Ben Gurion

DERNIER METAR :
  • 191950Z 18006KT 9999 -RA FEW015 BKN040 12/11 Q1018 TEMPO 5000 SHRA FEW025TCU BKN030

METARs EXPIRÉS :
  • 191920Z 14010KT 9999 -RA FEW020 BKN030 12/11 Q1018 RERA TEMPO 5000 SHRA FEW025TCU BKN030
  • 191850Z 19007KT 160V220 9999 RA SCT020 BKN040 11/10 Q1018 TEMPO NSW
  • 191820Z 22010KT 9999 RA FEW015 BKN025 11/10 Q1017 NOSIG
  • 191750Z 16007KT 9999 -RA SCT030 SCT050 12/10 Q1017 TEMPO 5000 SHRA FEW025TCU
  • 191720Z VRB03KT 9999 -RA BKN050 12/09 Q1017 TEMPO 5000 SHRA FEW025TCU

TAF AMD TAF LLBG
Valide du 19 à 18h jusqu'au 20 à 18h UTC


191732Z 1918/2018 29010KT 9999 SCT035
TEMPO 1918/1922 30017G27KT 5000 SHRA FEW025TCU BKN035
PROB40
TEMPO 1922/2013 30017G27KT 5000 TSRA SCT020 FEW025CB BKN040
PROB40 2013/2018 9999 -RA BKN025 TX14/2012Z TN11/2004Z
FIR LLLL / Asie



MET'MAP, la Météo Aéronautique d'un coup d'oeil ! - Copyright ORBIFLY Décembre 2007 - Disclaimer

ORBIFLY MET'MAP TEAM :

Programmation & Développement : Alexandra Zaïnal
Sur une idée originale de : Baudouin d'Aumeries
Assistance à la programmation : Marc-Olivier Méhu
Soutien technique & logistique : Manuel Goepfert

Contact : metmap@orbifly.com




SOURCES & CREDITS :

   NOAA